sensor_id;sensor_type;location;lat;lon;timestamp;P1;durP1;ratioP1;P2;durP2;ratioP2
20794;SDS011;28087;-33.874;151.240;2024-03-02T00:02:51;24.73;;;6.45;;
20794;SDS011;28087;-33.874;151.240;2024-03-02T00:05:58;29.73;;;6.43;;
20794;SDS011;28087;-33.874;151.240;2024-03-02T00:09:06;32.28;;;6.85;;
20794;SDS011;28087;-33.874;151.240;2024-03-02T00:12:15;27.80;;;6.38;;
20794;SDS011;28087;-33.874;151.240;2024-03-02T00:15:29;25.55;;;6.03;;
20794;SDS011;28087;-33.874;151.240;2024-03-02T00:18:36;25.85;;;6.15;;
20794;SDS011;28087;-33.874;151.240;2024-03-02T00:21:42;27.95;;;6.82;;
20794;SDS011;28087;-33.874;151.240;2024-03-02T00:24:51;32.92;;;6.78;;
20794;SDS011;28087;-33.874;151.240;2024-03-02T00:27:56;29.85;;;6.32;;
20794;SDS011;28087;-33.874;151.240;2024-03-02T00:31:07;26.00;;;6.13;;
20794;SDS011;28087;-33.874;151.240;2024-03-02T00:34:14;27.95;;;6.97;;
20794;SDS011;28087;-33.874;151.240;2024-03-02T00:37:14;30.38;;;6.65;;
20794;SDS011;28087;-33.874;151.240;2024-03-02T00:40:16;30.27;;;7.15;;
20794;SDS011;28087;-33.874;151.240;2024-03-02T00:46:54;25.67;;;6.53;;
20794;SDS011;28087;-33.874;151.240;2024-03-02T00:50:00;28.58;;;6.20;;
20794;SDS011;28087;-33.874;151.240;2024-03-02T00:53:18;29.70;;;6.80;;
20794;SDS011;28087;-33.874;151.240;2024-03-02T00:56:28;23.30;;;5.90;;
20794;SDS011;28087;-33.874;151.240;2024-03-02T00:59:36;23.88;;;5.60;;
20794;SDS011;28087;-33.874;151.240;2024-03-02T01:02:42;25.40;;;5.88;;
20794;SDS011;28087;-33.874;151.240;2024-03-02T01:05:48;27.80;;;5.65;;
20794;SDS011;28087;-33.874;151.240;2024-03-02T01:08:57;21.55;;;5.55;;
20794;SDS011;28087;-33.874;151.240;2024-03-02T01:12:07;25.52;;;5.32;;
20794;SDS011;28087;-33.874;151.240;2024-03-02T01:15:13;21.25;;;5.10;;
20794;SDS011;28087;-33.874;151.240;2024-03-02T01:18:18;23.45;;;5.63;;
20794;SDS011;28087;-33.874;151.240;2024-03-02T01:21:25;21.15;;;5.22;;
20794;SDS011;28087;-33.874;151.240;2024-03-02T01:24:32;21.65;;;4.97;;
20794;SDS011;28087;-33.874;151.240;2024-03-02T01:27:40;21.23;;;4.60;;
20794;SDS011;28087;-33.874;151.240;2024-03-02T01:30:49;22.67;;;5.57;;
20794;SDS011;28087;-33.874;151.240;2024-03-02T01:33:57;19.70;;;4.97;;
20794;SDS011;28087;-33.874;151.240;2024-03-02T01:37:04;23.83;;;5.85;;
20794;SDS011;28087;-33.874;151.240;2024-03-02T01:40:13;19.98;;;4.88;;
20794;SDS011;28087;-33.874;151.240;2024-03-02T01:43:24;23.42;;;5.00;;
20794;SDS011;28087;-33.874;151.240;2024-03-02T01:46:30;26.27;;;5.55;;
20794;SDS011;28087;-33.874;151.240;2024-03-02T01:49:36;28.27;;;5.88;;
20794;SDS011;28087;-33.874;151.240;2024-03-02T01:52:42;24.27;;;6.18;;
20794;SDS011;28087;-33.874;151.240;2024-03-02T01:55:43;20.67;;;5.38;;
20794;SDS011;28087;-33.874;151.240;2024-03-02T01:58:46;24.92;;;6.10;;
20794;SDS011;28087;-33.874;151.240;2024-03-02T02:01:53;20.55;;;5.15;;
20794;SDS011;28087;-33.874;151.240;2024-03-02T02:05:01;20.33;;;5.35;;
20794;SDS011;28087;-33.874;151.240;2024-03-02T02:08:07;23.98;;;5.80;;
20794;SDS011;28087;-33.874;151.240;2024-03-02T02:11:15;20.08;;;5.50;;
20794;SDS011;28087;-33.874;151.240;2024-03-02T02:14:24;22.42;;;5.47;;
20794;SDS011;28087;-33.874;151.240;2024-03-02T02:17:31;20.90;;;5.78;;
20794;SDS011;28087;-33.874;151.240;2024-03-02T02:20:37;25.15;;;6.03;;
20794;SDS011;28087;-33.874;151.240;2024-03-02T02:23:44;24.50;;;5.40;;
20794;SDS011;28087;-33.874;151.240;2024-03-02T02:26:51;18.95;;;5.03;;
20794;SDS011;28087;-33.874;151.240;2024-03-02T02:29:57;21.95;;;4.65;;
20794;SDS011;28087;-33.874;151.240;2024-03-02T02:33:05;19.17;;;4.53;;
20794;SDS011;28087;-33.874;151.240;2024-03-02T02:36:11;20.13;;;4.57;;
20794;SDS011;28087;-33.874;151.240;2024-03-02T02:39:21;15.65;;;4.68;;
20794;SDS011;28087;-33.874;151.240;2024-03-02T02:42:26;20.27;;;5.43;;
20794;SDS011;28087;-33.874;151.240;2024-03-02T02:45:33;30.48;;;6.57;;
20794;SDS011;28087;-33.874;151.240;2024-03-02T02:48:39;22.10;;;6.03;;
20794;SDS011;28087;-33.874;151.240;2024-03-02T02:51:47;23.27;;;6.70;;
20794;SDS011;28087;-33.874;151.240;2024-03-02T02:54:55;26.95;;;7.00;;
20794;SDS011;28087;-33.874;151.240;2024-03-02T02:57:55;30.15;;;7.75;;
20794;SDS011;28087;-33.874;151.240;2024-03-02T03:00:55;25.45;;;7.10;;
20794;SDS011;28087;-33.874;151.240;2024-03-02T03:04:03;19.73;;;6.78;;
20794;SDS011;28087;-33.874;151.240;2024-03-02T03:07:08;22.90;;;7.35;;
20794;SDS011;28087;-33.874;151.240;2024-03-02T03:10:17;19.80;;;7.00;;
20794;SDS011;28087;-33.874;151.240;2024-03-02T03:13:23;24.77;;;7.50;;
20794;SDS011;28087;-33.874;151.240;2024-03-02T03:16:29;21.52;;;6.65;;
20794;SDS011;28087;-33.874;151.240;2024-03-02T03:19:37;22.30;;;7.05;;
20794;SDS011;28087;-33.874;151.240;2024-03-02T03:22:44;21.92;;;7.05;;
20794;SDS011;28087;-33.874;151.240;2024-03-02T03:25:51;24.65;;;7.00;;
20794;SDS011;28087;-33.874;151.240;2024-03-02T03:29:00;22.33;;;6.50;;
20794;SDS011;28087;-33.874;151.240;2024-03-02T03:32:06;26.23;;;7.25;;
20794;SDS011;28087;-33.874;151.240;2024-03-02T03:35:13;26.13;;;6.97;;
20794;SDS011;28087;-33.874;151.240;2024-03-02T03:38:18;21.40;;;6.75;;
20794;SDS011;28087;-33.874;151.240;2024-03-02T03:41:29;17.05;;;6.35;;
20794;SDS011;28087;-33.874;151.240;2024-03-02T03:44:35;23.58;;;6.70;;
20794;SDS011;28087;-33.874;151.240;2024-03-02T03:47:40;20.90;;;7.03;;
20794;SDS011;28087;-33.874;151.240;2024-03-02T03:50:47;19.80;;;6.47;;
20794;SDS011;28087;-33.874;151.240;2024-03-02T03:53:53;24.30;;;6.90;;
20794;SDS011;28087;-33.874;151.240;2024-03-02T03:57:01;20.10;;;6.43;;
20794;SDS011;28087;-33.874;151.240;2024-03-02T04:00:09;20.50;;;6.63;;
20794;SDS011;28087;-33.874;151.240;2024-03-02T04:03:09;18.70;;;5.70;;
20794;SDS011;28087;-33.874;151.240;2024-03-02T04:06:09;20.20;;;5.93;;
20794;SDS011;28087;-33.874;151.240;2024-03-02T04:09:15;23.08;;;7.00;;
20794;SDS011;28087;-33.874;151.240;2024-03-02T04:12:20;20.77;;;6.10;;
20794;SDS011;28087;-33.874;151.240;2024-03-02T04:15:36;17.10;;;5.53;;
20794;SDS011;28087;-33.874;151.240;2024-03-02T04:19:08;24.15;;;6.20;;
20794;SDS011;28087;-33.874;151.240;2024-03-02T04:22:19;19.13;;;6.03;;
20794;SDS011;28087;-33.874;151.240;2024-03-02T04:25:32;21.08;;;6.05;;
20794;SDS011;28087;-33.874;151.240;2024-03-02T04:28:39;22.17;;;5.78;;
20794;SDS011;28087;-33.874;151.240;2024-03-02T04:31:45;20.50;;;5.57;;
20794;SDS011;28087;-33.874;151.240;2024-03-02T04:34:51;21.33;;;5.50;;
20794;SDS011;28087;-33.874;151.240;2024-03-02T04:37:57;22.00;;;5.47;;
20794;SDS011;28087;-33.874;151.240;2024-03-02T04:41:04;28.58;;;6.15;;
20794;SDS011;28087;-33.874;151.240;2024-03-02T04:44:11;24.30;;;5.90;;
20794;SDS011;28087;-33.874;151.240;2024-03-02T04:47:18;17.83;;;4.85;;
20794;SDS011;28087;-33.874;151.240;2024-03-02T04:50:24;17.73;;;5.30;;
20794;SDS011;28087;-33.874;151.240;2024-03-02T04:53:30;19.65;;;5.63;;
20794;SDS011;28087;-33.874;151.240;2024-03-02T05:00:19;17.42;;;5.13;;
20794;SDS011;28087;-33.874;151.240;2024-03-02T05:03:20;18.67;;;5.22;;
20794;SDS011;28087;-33.874;151.240;2024-03-02T05:06:20;19.83;;;5.35;;
20794;SDS011;28087;-33.874;151.240;2024-03-02T05:09:32;19.80;;;4.97;;
20794;SDS011;28087;-33.874;151.240;2024-03-02T05:12:39;16.92;;;4.80;;
20794;SDS011;28087;-33.874;151.240;2024-03-02T05:15:56;15.52;;;4.85;;
20794;SDS011;28087;-33.874;151.240;2024-03-02T05:19:03;17.02;;;4.63;;
20794;SDS011;28087;-33.874;151.240;2024-03-02T05:22:11;15.80;;;4.50;;
20794;SDS011;28087;-33.874;151.240;2024-03-02T05:25:18;18.50;;;4.93;;
20794;SDS011;28087;-33.874;151.240;2024-03-02T05:28:24;13.77;;;4.50;;
20794;SDS011;28087;-33.874;151.240;2024-03-02T05:31:31;16.65;;;4.57;;
20794;SDS011;28087;-33.874;151.240;2024-03-02T05:34:37;16.98;;;4.28;;
20794;SDS011;28087;-33.874;151.240;2024-03-02T05:37:43;19.27;;;4.25;;
20794;SDS011;28087;-33.874;151.240;2024-03-02T05:40:49;16.17;;;4.28;;
20794;SDS011;28087;-33.874;151.240;2024-03-02T05:43:55;15.80;;;4.13;;
20794;SDS011;28087;-33.874;151.240;2024-03-02T05:47:03;16.70;;;3.92;;
20794;SDS011;28087;-33.874;151.240;2024-03-02T05:50:09;14.05;;;3.80;;
20794;SDS011;28087;-33.874;151.240;2024-03-02T05:53:16;17.45;;;4.38;;
20794;SDS011;28087;-33.874;151.240;2024-03-02T05:56:23;19.58;;;4.70;;
20794;SDS011;28087;-33.874;151.240;2024-03-02T05:59:30;15.90;;;4.28;;
20794;SDS011;28087;-33.874;151.240;2024-03-02T06:02:38;14.02;;;4.18;;
20794;SDS011;28087;-33.874;151.240;2024-03-02T06:05:38;18.67;;;4.40;;
20794;SDS011;28087;-33.874;151.240;2024-03-02T06:08:37;13.38;;;3.95;;
20794;SDS011;28087;-33.874;151.240;2024-03-02T06:11:45;15.02;;;4.05;;
20794;SDS011;28087;-33.874;151.240;2024-03-02T06:14:51;15.10;;;4.00;;
20794;SDS011;28087;-33.874;151.240;2024-03-02T06:17:59;11.75;;;3.75;;
20794;SDS011;28087;-33.874;151.240;2024-03-02T06:21:04;17.83;;;4.20;;
20794;SDS011;28087;-33.874;151.240;2024-03-02T06:24:11;14.75;;;4.13;;
20794;SDS011;28087;-33.874;151.240;2024-03-02T06:27:20;20.25;;;4.63;;
20794;SDS011;28087;-33.874;151.240;2024-03-02T06:30:26;17.65;;;4.32;;
20794;SDS011;28087;-33.874;151.240;2024-03-02T06:33:34;17.95;;;5.40;;
20794;SDS011;28087;-33.874;151.240;2024-03-02T06:36:35;18.60;;;4.28;;
20794;SDS011;28087;-33.874;151.240;2024-03-02T06:39:41;21.25;;;8.00;;
20794;SDS011;28087;-33.874;151.240;2024-03-02T06:42:48;16.45;;;4.00;;
20794;SDS011;28087;-33.874;151.240;2024-03-02T06:45:54;19.70;;;4.80;;
20794;SDS011;28087;-33.874;151.240;2024-03-02T06:49:04;19.77;;;4.70;;
20794;SDS011;28087;-33.874;151.240;2024-03-02T06:52:10;18.42;;;4.40;;
20794;SDS011;28087;-33.874;151.240;2024-03-02T06:55:17;17.58;;;4.60;;
20794;SDS011;28087;-33.874;151.240;2024-03-02T06:58:23;14.90;;;4.20;;
20794;SDS011;28087;-33.874;151.240;2024-03-02T07:01:30;18.67;;;4.13;;
20794;SDS011;28087;-33.874;151.240;2024-03-02T07:04:38;14.55;;;3.50;;
20794;SDS011;28087;-33.874;151.240;2024-03-02T07:07:44;18.83;;;4.18;;
20794;SDS011;28087;-33.874;151.240;2024-03-02T07:10:51;14.43;;;3.95;;
20794;SDS011;28087;-33.874;151.240;2024-03-02T07:13:52;14.07;;;3.90;;
20794;SDS011;28087;-33.874;151.240;2024-03-02T07:16:52;16.13;;;3.60;;
20794;SDS011;28087;-33.874;151.240;2024-03-02T07:20:00;15.18;;;3.90;;
20794;SDS011;28087;-33.874;151.240;2024-03-02T07:23:05;18.25;;;8.20;;
20794;SDS011;28087;-33.874;151.240;2024-03-02T07:26:08;17.13;;;6.28;;
20794;SDS011;28087;-33.874;151.240;2024-03-02T07:29:11;15.10;;;4.55;;
20794;SDS011;28087;-33.874;151.240;2024-03-02T07:32:17;14.60;;;5.18;;
20794;SDS011;28087;-33.874;151.240;2024-03-02T07:35:28;12.55;;;3.75;;
20794;SDS011;28087;-33.874;151.240;2024-03-02T07:38:35;13.93;;;3.10;;
20794;SDS011;28087;-33.874;151.240;2024-03-02T07:41:44;15.73;;;4.47;;
20794;SDS011;28087;-33.874;151.240;2024-03-02T07:44:50;16.92;;;3.40;;
20794;SDS011;28087;-33.874;151.240;2024-03-02T07:47:56;12.10;;;3.30;;
20794;SDS011;28087;-33.874;151.240;2024-03-02T07:51:04;11.57;;;2.50;;
20794;SDS011;28087;-33.874;151.240;2024-03-02T07:54:10;14.85;;;3.00;;
20794;SDS011;28087;-33.874;151.240;2024-03-02T07:57:16;12.13;;;3.17;;
20794;SDS011;28087;-33.874;151.240;2024-03-02T08:00:23;10.80;;;2.80;;
20794;SDS011;28087;-33.874;151.240;2024-03-02T08:03:30;15.05;;;3.42;;
20794;SDS011;28087;-33.874;151.240;2024-03-02T08:06:39;12.27;;;2.75;;
20794;SDS011;28087;-33.874;151.240;2024-03-02T08:09:44;17.80;;;3.38;;
20794;SDS011;28087;-33.874;151.240;2024-03-02T08:12:52;15.27;;;3.00;;
20794;SDS011;28087;-33.874;151.240;2024-03-02T08:15:52;18.45;;;3.63;;
20794;SDS011;28087;-33.874;151.240;2024-03-02T08:18:52;11.23;;;2.67;;
20794;SDS011;28087;-33.874;151.240;2024-03-02T08:22:01;11.05;;;2.63;;
20794;SDS011;28087;-33.874;151.240;2024-03-02T08:25:08;13.90;;;2.75;;
20794;SDS011;28087;-33.874;151.240;2024-03-02T08:28:15;14.25;;;3.17;;
20794;SDS011;28087;-33.874;151.240;2024-03-02T08:31:24;15.30;;;3.08;;
20794;SDS011;28087;-33.874;151.240;2024-03-02T08:34:32;16.67;;;4.10;;
20794;SDS011;28087;-33.874;151.240;2024-03-02T08:37:41;17.55;;;6.45;;
20794;SDS011;28087;-33.874;151.240;2024-03-02T08:40:48;21.65;;;12.63;;
20794;SDS011;28087;-33.874;151.240;2024-03-02T08:43:54;67.28;;;45.47;;
20794;SDS011;28087;-33.874;151.240;2024-03-02T08:47:01;20.73;;;8.25;;
20794;SDS011;28087;-33.874;151.240;2024-03-02T08:50:08;16.67;;;4.28;;
20794;SDS011;28087;-33.874;151.240;2024-03-02T08:53:16;21.63;;;4.20;;
20794;SDS011;28087;-33.874;151.240;2024-03-02T08:56:26;17.95;;;4.30;;
20794;SDS011;28087;-33.874;151.240;2024-03-02T08:59:32;14.95;;;3.78;;
20794;SDS011;28087;-33.874;151.240;2024-03-02T09:02:38;14.73;;;3.75;;
20794;SDS011;28087;-33.874;151.240;2024-03-02T09:05:44;14.90;;;3.30;;
20794;SDS011;28087;-33.874;151.240;2024-03-02T09:08:55;14.27;;;3.53;;
20794;SDS011;28087;-33.874;151.240;2024-03-02T09:12:00;14.95;;;3.05;;
20794;SDS011;28087;-33.874;151.240;2024-03-02T09:15:11;19.63;;;3.28;;
20794;SDS011;28087;-33.874;151.240;2024-03-02T09:18:19;15.70;;;3.28;;
20794;SDS011;28087;-33.874;151.240;2024-03-02T09:21:25;15.63;;;2.88;;
20794;SDS011;28087;-33.874;151.240;2024-03-02T09:24:33;15.30;;;2.97;;
20794;SDS011;28087;-33.874;151.240;2024-03-02T09:27:40;15.50;;;3.05;;
20794;SDS011;28087;-33.874;151.240;2024-03-02T09:30:49;18.05;;;3.63;;
20794;SDS011;28087;-33.874;151.240;2024-03-02T09:33:59;18.35;;;3.20;;
20794;SDS011;28087;-33.874;151.240;2024-03-02T09:37:07;18.42;;;3.25;;
20794;SDS011;28087;-33.874;151.240;2024-03-02T09:40:09;17.88;;;3.70;;
20794;SDS011;28087;-33.874;151.240;2024-03-02T09:43:11;16.08;;;3.05;;
20794;SDS011;28087;-33.874;151.240;2024-03-02T09:50:42;16.98;;;3.08;;
20794;SDS011;28087;-33.874;151.240;2024-03-02T09:54:09;21.17;;;11.10;;
20794;SDS011;28087;-33.874;151.240;2024-03-02T09:57:23;15.30;;;3.95;;
20794;SDS011;28087;-33.874;151.240;2024-03-02T10:00:31;14.65;;;3.63;;
20794;SDS011;28087;-33.874;151.240;2024-03-02T10:03:57;18.15;;;3.35;;
20794;SDS011;28087;-33.874;151.240;2024-03-02T10:07:18;15.85;;;3.05;;
20794;SDS011;28087;-33.874;151.240;2024-03-02T10:10:36;16.13;;;3.15;;
20794;SDS011;28087;-33.874;151.240;2024-03-02T10:13:45;12.98;;;2.60;;
20794;SDS011;28087;-33.874;151.240;2024-03-02T10:16:51;11.95;;;2.40;;
20794;SDS011;28087;-33.874;151.240;2024-03-02T10:19:58;16.95;;;3.10;;
20794;SDS011;28087;-33.874;151.240;2024-03-02T10:23:10;14.85;;;3.03;;
20794;SDS011;28087;-33.874;151.240;2024-03-02T10:26:16;15.07;;;3.03;;
20794;SDS011;28087;-33.874;151.240;2024-03-02T10:29:25;17.52;;;2.97;;
20794;SDS011;28087;-33.874;151.240;2024-03-02T10:32:31;17.80;;;3.17;;
20794;SDS011;28087;-33.874;151.240;2024-03-02T10:35:38;12.95;;;3.45;;
20794;SDS011;28087;-33.874;151.240;2024-03-02T10:38:45;14.80;;;3.60;;
20794;SDS011;28087;-33.874;151.240;2024-03-02T10:41:52;13.90;;;3.78;;
20794;SDS011;28087;-33.874;151.240;2024-03-02T10:45:01;18.30;;;2.92;;
20794;SDS011;28087;-33.874;151.240;2024-03-02T10:48:09;11.80;;;3.05;;
20794;SDS011;28087;-33.874;151.240;2024-03-02T10:51:19;17.35;;;6.15;;
20794;SDS011;28087;-33.874;151.240;2024-03-02T10:54:27;19.58;;;12.00;;
20794;SDS011;28087;-33.874;151.240;2024-03-02T10:57:40;22.38;;;9.55;;
20794;SDS011;28087;-33.874;151.240;2024-03-02T11:00:49;17.02;;;3.80;;
20794;SDS011;28087;-33.874;151.240;2024-03-02T11:03:57;10.85;;;3.22;;
20794;SDS011;28087;-33.874;151.240;2024-03-02T11:07:07;13.02;;;2.70;;
20794;SDS011;28087;-33.874;151.240;2024-03-02T11:10:14;8.50;;;2.35;;
20794;SDS011;28087;-33.874;151.240;2024-03-02T11:13:24;15.60;;;3.08;;
20794;SDS011;28087;-33.874;151.240;2024-03-02T11:16:35;12.10;;;2.60;;
20794;SDS011;28087;-33.874;151.240;2024-03-02T11:19:43;16.33;;;2.83;;
20794;SDS011;28087;-33.874;151.240;2024-03-02T11:22:51;15.25;;;2.92;;
20794;SDS011;28087;-33.874;151.240;2024-03-02T11:26:02;14.30;;;2.47;;
20794;SDS011;28087;-33.874;151.240;2024-03-02T11:32:47;13.70;;;2.53;;
20794;SDS011;28087;-33.874;151.240;2024-03-02T11:36:04;11.27;;;2.50;;
20794;SDS011;28087;-33.874;151.240;2024-03-02T11:39:13;14.32;;;2.67;;
20794;SDS011;28087;-33.874;151.240;2024-03-02T11:42:22;11.38;;;2.60;;
20794;SDS011;28087;-33.874;151.240;2024-03-02T11:45:29;16.10;;;2.97;;
20794;SDS011;28087;-33.874;151.240;2024-03-02T11:48:40;15.00;;;3.80;;
20794;SDS011;28087;-33.874;151.240;2024-03-02T11:51:50;26.70;;;14.27;;
20794;SDS011;28087;-33.874;151.240;2024-03-02T11:54:59;26.23;;;13.20;;
20794;SDS011;28087;-33.874;151.240;2024-03-02T11:58:08;14.27;;;5.93;;
20794;SDS011;28087;-33.874;151.240;2024-03-02T12:01:16;15.80;;;3.50;;
20794;SDS011;28087;-33.874;151.240;2024-03-02T12:04:27;12.65;;;2.65;;
20794;SDS011;28087;-33.874;151.240;2024-03-02T12:07:34;13.45;;;2.70;;
20794;SDS011;28087;-33.874;151.240;2024-03-02T12:10:41;11.10;;;2.88;;
20794;SDS011;28087;-33.874;151.240;2024-03-02T12:13:53;13.70;;;2.35;;
20794;SDS011;28087;-33.874;151.240;2024-03-02T12:17:00;12.10;;;2.63;;
20794;SDS011;28087;-33.874;151.240;2024-03-02T12:20:20;13.85;;;2.33;;
20794;SDS011;28087;-33.874;151.240;2024-03-02T12:23:26;10.25;;;2.92;;
20794;SDS011;28087;-33.874;151.240;2024-03-02T12:26:33;9.25;;;2.47;;
20794;SDS011;28087;-33.874;151.240;2024-03-02T12:29:39;14.55;;;3.08;;
20794;SDS011;28087;-33.874;151.240;2024-03-02T12:32:46;10.48;;;2.30;;
20794;SDS011;28087;-33.874;151.240;2024-03-02T12:35:57;13.02;;;2.75;;
20794;SDS011;28087;-33.874;151.240;2024-03-02T12:39:05;18.23;;;5.70;;
20794;SDS011;28087;-33.874;151.240;2024-03-02T12:42:06;21.15;;;13.88;;
20794;SDS011;28087;-33.874;151.240;2024-03-02T12:45:22;15.25;;;5.70;;
20794;SDS011;28087;-33.874;151.240;2024-03-02T12:48:29;10.07;;;2.88;;
20794;SDS011;28087;-33.874;151.240;2024-03-02T12:51:39;11.95;;;2.80;;
20794;SDS011;28087;-33.874;151.240;2024-03-02T12:54:51;13.52;;;2.85;;
20794;SDS011;28087;-33.874;151.240;2024-03-02T12:57:59;12.70;;;2.30;;
20794;SDS011;28087;-33.874;151.240;2024-03-02T13:01:06;8.20;;;2.20;;
20794;SDS011;28087;-33.874;151.240;2024-03-02T13:04:15;18.13;;;2.58;;
20794;SDS011;28087;-33.874;151.240;2024-03-02T13:07:23;13.35;;;2.90;;
20794;SDS011;28087;-33.874;151.240;2024-03-02T13:10:37;8.82;;;2.22;;
20794;SDS011;28087;-33.874;151.240;2024-03-02T13:13:45;9.85;;;2.33;;
20794;SDS011;28087;-33.874;151.240;2024-03-02T13:16:57;12.52;;;2.40;;
20794;SDS011;28087;-33.874;151.240;2024-03-02T13:20:03;15.75;;;2.60;;
20794;SDS011;28087;-33.874;151.240;2024-03-02T13:23:15;14.70;;;2.47;;
20794;SDS011;28087;-33.874;151.240;2024-03-02T13:26:21;10.25;;;2.40;;
20794;SDS011;28087;-33.874;151.240;2024-03-02T13:29:27;8.52;;;2.72;;
20794;SDS011;28087;-33.874;151.240;2024-03-02T13:32:34;13.13;;;3.00;;
20794;SDS011;28087;-33.874;151.240;2024-03-02T13:35:41;12.18;;;5.25;;
20794;SDS011;28087;-33.874;151.240;2024-03-02T13:38:49;18.33;;;4.88;;
20794;SDS011;28087;-33.874;151.240;2024-03-02T13:41:57;10.57;;;3.80;;
20794;SDS011;28087;-33.874;151.240;2024-03-02T13:45:04;16.70;;;3.10;;
20794;SDS011;28087;-33.874;151.240;2024-03-02T13:48:11;14.88;;;2.95;;
20794;SDS011;28087;-33.874;151.240;2024-03-02T13:51:18;10.80;;;2.78;;
20794;SDS011;28087;-33.874;151.240;2024-03-02T13:54:27;9.48;;;1.98;;
20794;SDS011;28087;-33.874;151.240;2024-03-02T13:57:36;13.40;;;2.30;;
20794;SDS011;28087;-33.874;151.240;2024-03-02T14:00:43;16.52;;;2.83;;
20794;SDS011;28087;-33.874;151.240;2024-03-02T14:03:53;8.48;;;2.33;;
20794;SDS011;28087;-33.874;151.240;2024-03-02T14:07:00;17.75;;;2.97;;
20794;SDS011;28087;-33.874;151.240;2024-03-02T14:10:08;15.07;;;2.75;;
20794;SDS011;28087;-33.874;151.240;2024-03-02T14:13:17;13.60;;;2.30;;
20794;SDS011;28087;-33.874;151.240;2024-03-02T14:16:28;15.60;;;2.60;;
20794;SDS011;28087;-33.874;151.240;2024-03-02T14:19:35;10.25;;;2.45;;
20794;SDS011;28087;-33.874;151.240;2024-03-02T14:22:42;9.95;;;2.20;;
20794;SDS011;28087;-33.874;151.240;2024-03-02T14:25:50;13.75;;;2.38;;
20794;SDS011;28087;-33.874;151.240;2024-03-02T14:28:56;12.75;;;2.83;;
20794;SDS011;28087;-33.874;151.240;2024-03-02T14:32:02;10.07;;;2.42;;
20794;SDS011;28087;-33.874;151.240;2024-03-02T14:35:09;14.23;;;2.63;;
20794;SDS011;28087;-33.874;151.240;2024-03-02T14:38:19;14.85;;;2.63;;
20794;SDS011;28087;-33.874;151.240;2024-03-02T14:41:29;13.50;;;2.70;;
20794;SDS011;28087;-33.874;151.240;2024-03-02T14:44:36;12.07;;;2.10;;
20794;SDS011;28087;-33.874;151.240;2024-03-02T14:47:42;11.02;;;2.40;;
20794;SDS011;28087;-33.874;151.240;2024-03-02T14:50:49;6.65;;;1.70;;
20794;SDS011;28087;-33.874;151.240;2024-03-02T14:53:57;9.98;;;2.28;;
20794;SDS011;28087;-33.874;151.240;2024-03-02T14:57:07;12.32;;;2.25;;
20794;SDS011;28087;-33.874;151.240;2024-03-02T15:00:14;11.77;;;2.35;;
20794;SDS011;28087;-33.874;151.240;2024-03-02T15:03:22;8.70;;;2.20;;
20794;SDS011;28087;-33.874;151.240;2024-03-02T15:06:30;10.40;;;2.42;;
20794;SDS011;28087;-33.874;151.240;2024-03-02T15:09:41;15.02;;;2.80;;
20794;SDS011;28087;-33.874;151.240;2024-03-02T15:12:51;12.77;;;2.42;;
20794;SDS011;28087;-33.874;151.240;2024-03-02T15:16:01;13.88;;;3.00;;
20794;SDS011;28087;-33.874;151.240;2024-03-02T15:19:08;12.73;;;2.60;;
20794;SDS011;28087;-33.874;151.240;2024-03-02T15:22:15;15.00;;;2.70;;
20794;SDS011;28087;-33.874;151.240;2024-03-02T15:25:22;13.05;;;2.30;;
20794;SDS011;28087;-33.874;151.240;2024-03-02T15:28:30;11.63;;;2.33;;
20794;SDS011;28087;-33.874;151.240;2024-03-02T15:31:36;12.35;;;2.38;;
20794;SDS011;28087;-33.874;151.240;2024-03-02T15:34:42;13.02;;;2.63;;
20794;SDS011;28087;-33.874;151.240;2024-03-02T15:37:50;9.70;;;2.30;;
20794;SDS011;28087;-33.874;151.240;2024-03-02T15:41:12;11.10;;;2.60;;
20794;SDS011;28087;-33.874;151.240;2024-03-02T15:44:20;9.63;;;2.00;;
20794;SDS011;28087;-33.874;151.240;2024-03-02T15:47:30;12.20;;;2.70;;
20794;SDS011;28087;-33.874;151.240;2024-03-02T15:50:38;11.98;;;2.40;;
20794;SDS011;28087;-33.874;151.240;2024-03-02T15:53:48;11.50;;;2.20;;
20794;SDS011;28087;-33.874;151.240;2024-03-02T15:56:54;13.18;;;2.58;;
20794;SDS011;28087;-33.874;151.240;2024-03-02T16:00:13;11.05;;;2.53;;
20794;SDS011;28087;-33.874;151.240;2024-03-02T16:03:19;8.40;;;2.00;;
20794;SDS011;28087;-33.874;151.240;2024-03-02T16:06:21;10.48;;;2.25;;
20794;SDS011;28087;-33.874;151.240;2024-03-02T16:09:24;12.80;;;2.65;;
20794;SDS011;28087;-33.874;151.240;2024-03-02T16:12:32;11.52;;;2.25;;
20794;SDS011;28087;-33.874;151.240;2024-03-02T16:15:40;12.43;;;2.42;;
20794;SDS011;28087;-33.874;151.240;2024-03-02T16:18:48;7.10;;;1.85;;
20794;SDS011;28087;-33.874;151.240;2024-03-02T16:22:08;12.48;;;2.40;;
20794;SDS011;28087;-33.874;151.240;2024-03-02T16:25:14;8.15;;;2.08;;
20794;SDS011;28087;-33.874;151.240;2024-03-02T16:28:21;11.07;;;1.95;;
20794;SDS011;28087;-33.874;151.240;2024-03-02T16:31:29;11.70;;;2.30;;
20794;SDS011;28087;-33.874;151.240;2024-03-02T16:34:35;12.43;;;2.40;;
20794;SDS011;28087;-33.874;151.240;2024-03-02T16:37:43;18.38;;;2.67;;
20794;SDS011;28087;-33.874;151.240;2024-03-02T16:40:49;11.45;;;2.20;;
20794;SDS011;28087;-33.874;151.240;2024-03-02T16:43:56;11.65;;;2.30;;
20794;SDS011;28087;-33.874;151.240;2024-03-02T16:47:04;9.70;;;2.50;;
20794;SDS011;28087;-33.874;151.240;2024-03-02T16:50:11;12.43;;;2.47;;
20794;SDS011;28087;-33.874;151.240;2024-03-02T16:53:18;10.70;;;2.35;;
20794;SDS011;28087;-33.874;151.240;2024-03-02T16:56:24;17.52;;;3.00;;
20794;SDS011;28087;-33.874;151.240;2024-03-02T16:59:30;15.73;;;3.10;;
20794;SDS011;28087;-33.874;151.240;2024-03-02T17:02:38;9.45;;;2.20;;
20794;SDS011;28087;-33.874;151.240;2024-03-02T17:05:44;12.95;;;2.33;;
20794;SDS011;28087;-33.874;151.240;2024-03-02T17:08:50;13.07;;;2.88;;
20794;SDS011;28087;-33.874;151.240;2024-03-02T17:11:58;11.65;;;2.80;;
20794;SDS011;28087;-33.874;151.240;2024-03-02T17:15:04;13.75;;;3.42;;
20794;SDS011;28087;-33.874;151.240;2024-03-02T17:18:12;10.95;;;2.70;;
20794;SDS011;28087;-33.874;151.240;2024-03-02T17:21:17;10.50;;;2.53;;
20794;SDS011;28087;-33.874;151.240;2024-03-02T17:24:25;13.07;;;2.67;;
20794;SDS011;28087;-33.874;151.240;2024-03-02T17:27:32;10.77;;;2.70;;
20794;SDS011;28087;-33.874;151.240;2024-03-02T17:30:39;10.93;;;2.72;;
20794;SDS011;28087;-33.874;151.240;2024-03-02T17:33:47;10.43;;;2.55;;
20794;SDS011;28087;-33.874;151.240;2024-03-02T17:36:53;12.15;;;2.85;;
20794;SDS011;28087;-33.874;151.240;2024-03-02T17:40:00;13.35;;;2.60;;
20794;SDS011;28087;-33.874;151.240;2024-03-02T17:43:07;12.02;;;2.70;;
20794;SDS011;28087;-33.874;151.240;2024-03-02T17:46:14;11.52;;;2.72;;
20794;SDS011;28087;-33.874;151.240;2024-03-02T17:49:23;16.02;;;3.10;;
20794;SDS011;28087;-33.874;151.240;2024-03-02T17:52:29;12.00;;;2.42;;
20794;SDS011;28087;-33.874;151.240;2024-03-02T17:55:36;14.32;;;3.10;;
20794;SDS011;28087;-33.874;151.240;2024-03-02T17:58:43;15.25;;;3.05;;
20794;SDS011;28087;-33.874;151.240;2024-03-02T18:01:53;12.73;;;2.75;;